Tularosa, New Mexico
Current Conditions -  °F | °C
As of 4:25 AM on Tuesday 21 Oct 2014 (Local Time) from KHMN Reporting Station
Moderate Fog Moderate Fog  
Wind Chill: 54°   Ceiling: 100
Heat Index: 54°   Visibility: 0.25mi
Dew Point: 54°   Wind: 5mph
Humidity: 100%   Direction: 100°E
Pressure: 30.07"   Gusts: NA
Location:  33.07°N, 106.02°W
Report Text: KHMN 211025Z AUTO 10004KT 1/4SM FG VV001 12/12 A3007 RMK AO2 RVRNO
Loading
Personal Weather Stations






























Interactive Weather Map
Tropical Storm Tracking
New forecast layout! Learn more

10-Day Weather Forecast

Advertisements
Track Severe Weather on mobile